Waukomis, OK (73773)

10:53 AM CDT on August 17, 2017 (GMT -0500)
Chisholm Trail | | Change Station

Elev 1234 ft 36.27 °N, 97.89 °W | Updated 11 seconds ago

Clear
Clear
78.3 °F
Feels Like 80 °F
N
2.0
Wind Variable Wind from South
Gusts 4.9 mph

Today
High -- | Low -- °F
--% Chance of Precip.
Yesterday
High -- | Low -- °F
Precip. -- in
Pressure 30.02 in
Visibility 10.0 miles
Clouds Few 13000 ft
Heat Index 80 °F
Dew Point 65 °F
Humidity 63%
Rainfall 0.00 in
Snow Depth Not available.
6:51 AM 8:19 PM
Waning Crescent, 22% visible
METAR KEND 171458Z 36008KT 10SM FEW130 24/20 A3005 RMK AO2A SLP166 P0000 T02350200 51023 $
Pressure 30.02 in
Visibility 10.0 miles
Clouds Few 13000 ft
Heat Index 80 °F
Dew Point 65 °F
Humidity 63%
Rainfall 0.00 in
Snow Depth Not available.
6:51 AM 8:19 PM
Waning Crescent, 22% visible
METAR KEND 171458Z 36008KT 10SM FEW130 24/20 A3005 RMK AO2A SLP166 P0000 T02350200 51023 $

Get Severe Weather Alerts

Thanks for signing up!

Be on the lookout for a verification email in your inbox.

You'll start receiving the daily forecast at 6 AM.

×

10-Day Weather Forecast

Almanac

Astronomy

Aug. 17, 2017 Rise Set
Actual Time
Civil Twilight
Nautical Twilight
Astronomical Twilight
Moon
Length of Visible Light
Length of Day
Tomorrow will be .
, % of the Moon is Illuminated

Today's Extremes

State Highs State Lows

Community

WunderPhotos

Category 6

Welcome to Category 6. This is the collective home for Weather Underground's featured writeups by Dr. Jeff Masters (right), Bob Henson (left), Chris Burt, and other regular contributors.

Nearby

Air Quality

  Air Quality AQ Index Pollutant
Not available.

Snow Depth

Station Depth Elevation

Earthquake Activity

City Distance Mag. Time & Date
Minimum magnitude displayed is 2.5.

Coastal Water Temperatures

Place Temperature

Stations

Nearby Weather Stations

Station Location Temp. Windchill Dew Point Humidity Wind Precip. Elev Updated Type
                   

Watches & Warnings

There are currently no watches in effect.